createdAt,value
2022-11-16T00:01:07.901Z,93.93
2022-11-16T00:03:35.995Z,84.70
2022-11-16T00:06:04.839Z,60.10
2022-11-16T00:08:34.060Z,56.60
2022-11-16T00:11:06.201Z,69.47
2022-11-16T00:13:33.248Z,81.50
2022-11-16T00:16:00.140Z,97.20
2022-11-16T00:18:27.027Z,73.30
2022-11-16T00:20:54.371Z,82.67
2022-11-16T00:23:21.447Z,62.93
2022-11-16T00:25:48.505Z,71.87
2022-11-16T00:28:15.549Z,76.13
2022-11-16T00:30:42.231Z,57.50
2022-11-16T00:33:14.065Z,66.27
2022-11-16T00:35:41.056Z,84.97
2022-11-16T00:38:08.403Z,85.33
2022-11-16T00:40:35.267Z,85.80
2022-11-16T00:43:01.828Z,51.90
2022-11-16T00:45:28.380Z,88.23
2022-11-16T00:48:00.178Z,92.17
2022-11-16T00:50:27.237Z,87.60
2022-11-16T00:52:53.929Z,64.00
2022-11-16T00:55:21.204Z,41.43
2022-11-16T00:57:47.844Z,77.07
2022-11-16T01:00:15.425Z,80.53
2022-11-16T01:02:42.336Z,87.60
2022-11-16T01:05:10.212Z,60.13
2022-11-16T01:07:38.124Z,76.57
2022-11-16T01:10:05.199Z,80.23
2022-11-16T01:12:32.446Z,91.83
2022-11-16T01:14:59.680Z,61.13
2022-11-16T01:17:26.541Z,65.57
2022-11-16T01:19:54.333Z,109.87
2022-11-16T01:22:21.805Z,67.87
2022-11-16T01:24:48.625Z,91.43
2022-11-16T01:27:15.479Z,92.03
2022-11-16T01:29:42.760Z,56.83
2022-11-16T01:32:09.831Z,81.90
2022-11-16T01:34:36.620Z,71.23
2022-11-16T01:37:04.009Z,69.80
2022-11-16T01:39:31.329Z,57.37
2022-11-16T01:41:58.233Z,72.13
2022-11-16T01:45:07.989Z,82.83
2022-11-16T01:47:38.257Z,99.53
2022-11-16T01:50:22.007Z,92.27
2022-11-16T01:52:54.192Z,76.20
2022-11-16T01:55:23.649Z,90.10
2022-11-16T01:57:50.701Z,74.90
2022-11-16T02:00:18.800Z,77.53
2022-11-16T02:03:00.610Z,94.63
2022-11-16T02:05:51.894Z,81.53
2022-11-16T02:08:52.443Z,82.30
2022-11-16T02:11:43.356Z,86.80
2022-11-16T02:14:24.438Z,72.53
2022-11-16T02:16:59.783Z,99.07
2022-11-16T02:19:59.566Z,92.37
2022-11-16T02:22:38.936Z,101.77
2022-11-16T02:25:12.623Z,49.20
2022-11-16T02:28:00.968Z,41.33
2022-11-16T02:30:30.794Z,57.50
2022-11-16T02:33:02.645Z,74.93
2022-11-16T02:35:36.246Z,76.10
2022-11-16T02:38:07.833Z,84.37
2022-11-16T02:40:43.143Z,76.70
2022-11-16T02:43:14.485Z,74.03
2022-11-16T02:45:48.455Z,87.63
2022-11-16T02:48:21.111Z,95.13
2022-11-16T02:50:51.980Z,95.87
2022-11-16T02:53:22.181Z,43.77
2022-11-16T02:55:49.168Z,88.93
2022-11-16T02:58:19.876Z,78.17
2022-11-16T03:00:54.932Z,78.37
2022-11-16T03:03:29.363Z,43.40
2022-11-16T03:06:01.547Z,28.43
2022-11-16T03:08:31.293Z,86.90
2022-11-16T03:11:19.314Z,68.37
2022-11-16T03:13:47.340Z,88.73
2022-11-16T03:16:20.484Z,64.20
2022-11-16T03:18:49.790Z,80.03
2022-11-16T03:21:21.607Z,91.87
2022-11-16T03:23:51.284Z,55.90
2022-11-16T03:26:24.177Z,61.60
2022-11-16T03:28:58.078Z,95.27
2022-11-16T03:31:30.247Z,41.23
2022-11-16T03:34:02.080Z,114.77
2022-11-16T03:36:33.240Z,54.63
2022-11-16T03:39:05.319Z,93.87
2022-11-16T03:41:34.701Z,104.83
2022-11-16T03:44:01.572Z,68.33
2022-11-16T03:46:29.054Z,121.60
2022-11-16T03:49:00.487Z,92.70
2022-11-16T03:51:28.131Z,128.47
2022-11-16T03:53:55.080Z,83.37
2022-11-16T03:56:21.974Z,129.97
2022-11-16T03:58:48.892Z,123.50
2022-11-16T04:01:15.837Z,132.03
2022-11-16T04:03:48.592Z,115.43
2022-11-16T04:06:33.822Z,150.53
2022-11-16T04:09:18.985Z,126.80
2022-11-16T04:12:04.151Z,130.50
2022-11-16T04:14:49.704Z,50.83
2022-11-16T04:17:36.529Z,113.23
2022-11-16T04:20:22.868Z,119.43
2022-11-16T04:23:12.519Z,51.37
2022-11-16T04:25:41.453Z,88.33
2022-11-16T04:28:13.736Z,129.70
2022-11-16T04:30:59.417Z,127.47
2022-11-16T04:33:44.997Z,128.40
2022-11-16T04:36:30.322Z,120.70
2022-11-16T04:38:56.852Z,52.53
2022-11-16T04:41:38.465Z,141.70
2022-11-16T04:44:06.265Z,128.43
2022-11-16T04:46:51.517Z,118.10
2022-11-16T04:49:18.105Z,63.23
2022-11-16T04:51:45.339Z,164.73
2022-11-16T04:54:12.214Z,123.27
2022-11-16T04:56:38.818Z,140.17
2022-11-16T04:59:05.685Z,136.40
2022-11-16T05:01:49.717Z,74.67
2022-11-16T05:04:16.407Z,159.33
2022-11-16T05:06:46.172Z,105.70
2022-11-16T05:09:14.051Z,144.57
2022-11-16T05:11:40.657Z,116.80
2022-11-16T05:14:09.025Z,123.80
2022-11-16T05:16:35.894Z,152.40
2022-11-16T05:19:21.136Z,58.57
2022-11-16T05:21:48.070Z,171.87
2022-11-16T05:24:33.599Z,167.03
2022-11-16T05:27:00.577Z,97.90
2022-11-16T05:29:27.252Z,132.23
2022-11-16T05:31:53.803Z,169.13
2022-11-16T05:34:20.756Z,159.80
2022-11-16T05:36:47.383Z,134.37
2022-11-16T05:39:15.234Z,175.27
2022-11-16T05:41:42.120Z,149.43
2022-11-16T05:44:08.799Z,190.53
2022-11-16T05:46:35.468Z,188.10
2022-11-16T05:49:02.245Z,124.93
2022-11-16T05:51:28.993Z,202.97
2022-11-16T05:53:55.847Z,174.60
2022-11-16T05:56:23.236Z,127.10
2022-11-16T05:58:49.912Z,197.83
2022-11-16T06:01:16.568Z,174.73
2022-11-16T06:03:45.894Z,189.93
2022-11-16T06:06:12.642Z,163.27
2022-11-16T06:08:39.392Z,170.83
2022-11-16T06:11:08.296Z,199.60
2022-11-16T06:13:36.187Z,207.63
2022-11-16T06:16:03.845Z,204.10
2022-11-16T06:18:33.563Z,172.50
2022-11-16T06:21:00.451Z,154.43
2022-11-16T06:23:27.194Z,195.57
2022-11-16T06:25:54.528Z,206.13
2022-11-16T06:28:21.349Z,182.10
2022-11-16T06:30:48.811Z,199.73
2022-11-16T06:33:16.068Z,168.20
2022-11-16T06:35:42.931Z,191.77
2022-11-16T06:38:09.927Z,191.30
2022-11-16T06:40:37.954Z,142.67
2022-11-16T06:43:05.132Z,171.10
2022-11-16T06:45:31.780Z,163.93
2022-11-16T06:47:58.997Z,134.40
2022-11-16T06:50:25.590Z,206.90
2022-11-16T06:52:53.259Z,195.57
2022-11-16T06:55:20.993Z,189.60
2022-11-16T06:57:47.918Z,161.07
2022-11-16T07:00:17.078Z,178.30
2022-11-16T07:02:43.611Z,191.40
2022-11-16T07:05:10.845Z,142.40
2022-11-16T07:07:37.780Z,164.03
2022-11-16T07:10:05.284Z,170.63
2022-11-16T07:12:31.838Z,173.40
2022-11-16T07:14:58.721Z,196.63
2022-11-16T07:17:25.266Z,161.60
2022-11-16T07:19:51.792Z,186.30
2022-11-16T07:22:19.023Z,146.90
2022-11-16T07:24:45.623Z,179.97
2022-11-16T07:27:12.215Z,175.20
2022-11-16T07:29:39.495Z,153.83
2022-11-16T07:32:06.186Z,127.10
2022-11-16T07:34:32.743Z,164.87
2022-11-16T07:37:00.586Z,179.90
2022-11-16T07:39:28.063Z,175.67
2022-11-16T07:41:54.994Z,160.23
2022-11-16T07:44:21.885Z,148.40
2022-11-16T07:46:49.081Z,121.70
2022-11-16T07:49:18.646Z,131.97
2022-11-16T07:51:46.047Z,144.13
2022-11-16T07:54:15.049Z,167.93
2022-11-16T07:56:42.654Z,113.53
2022-11-16T07:59:10.425Z,146.67
2022-11-16T08:01:41.164Z,146.20
2022-11-16T08:04:10.012Z,155.17
2022-11-16T08:06:40.251Z,113.67
2022-11-16T08:09:10.326Z,110.00
2022-11-16T08:11:37.412Z,150.40
2022-11-16T08:14:06.272Z,113.47
2022-11-16T08:16:33.388Z,101.23
2022-11-16T08:19:01.539Z,141.20
2022-11-16T08:21:29.043Z,66.80
2022-11-16T08:23:58.655Z,103.87
2022-11-16T08:26:26.375Z,85.43
2022-11-16T08:28:55.004Z,74.57
2022-11-16T08:31:24.535Z,100.87
2022-11-16T08:33:51.793Z,114.57
2022-11-16T08:36:18.906Z,89.17
2022-11-16T08:38:46.745Z,64.37
2022-11-16T08:41:13.879Z,119.53
2022-11-16T08:43:40.978Z,44.73
2022-11-16T08:46:10.669Z,110.57
2022-11-16T08:48:38.637Z,78.73
2022-11-16T08:51:17.400Z,93.30
2022-11-16T08:53:48.812Z,53.47
2022-11-16T08:56:17.416Z,51.50
2022-11-16T08:58:46.093Z,60.80
2022-11-16T09:01:15.709Z,80.80
2022-11-16T09:03:43.285Z,59.63
2022-11-16T09:06:11.165Z,36.90
2022-11-16T09:08:39.705Z,98.27
2022-11-16T09:11:09.764Z,43.17
2022-11-16T09:13:36.558Z,66.33
2022-11-16T09:16:04.537Z,66.20
2022-11-16T09:18:31.844Z,67.67
2022-11-16T09:20:59.514Z,74.63
2022-11-16T09:23:26.551Z,44.13
2022-11-16T09:25:55.821Z,52.57
2022-11-16T09:28:22.595Z,62.20
2022-11-16T09:30:50.725Z,34.20
2022-11-16T09:33:17.878Z,42.43
2022-11-16T09:35:44.729Z,36.43
2022-11-16T09:38:16.145Z,52.93
2022-11-16T09:40:47.590Z,31.77
2022-11-16T09:43:27.022Z,22.03
2022-11-16T09:46:04.727Z,25.47
2022-11-16T09:48:33.688Z,31.40
2022-11-16T09:51:07.514Z,34.87
2022-11-16T09:53:40.193Z,38.73
2022-11-16T09:56:10.724Z,38.57
2022-11-16T09:58:42.496Z,32.30
2022-11-16T10:01:21.522Z,22.00
2022-11-16T10:03:53.030Z,34.13
2022-11-16T10:06:22.983Z,24.87
2022-11-16T10:08:53.180Z,41.07
2022-11-16T10:11:32.041Z,25.20
2022-11-16T10:14:13.883Z,43.77
2022-11-16T10:16:48.257Z,43.37
2022-11-16T10:19:22.684Z,30.80
2022-11-16T10:21:57.827Z,25.70
2022-11-16T10:24:33.366Z,41.83
2022-11-16T10:27:21.837Z,24.30
2022-11-16T10:30:03.301Z,36.73
2022-11-16T10:32:32.696Z,22.53
2022-11-16T10:35:05.928Z,35.03
2022-11-16T10:37:36.246Z,32.73
2022-11-16T10:40:18.363Z,18.87
2022-11-16T10:42:51.606Z,25.13
2022-11-16T10:45:23.131Z,17.27
2022-11-16T10:47:53.505Z,28.03
2022-11-16T10:50:32.698Z,23.37
2022-11-16T10:53:02.232Z,18.07
2022-11-16T10:55:31.607Z,26.17
2022-11-16T10:58:00.122Z,24.67
2022-11-16T11:00:36.020Z,22.07
2022-11-16T11:03:03.193Z,38.57
2022-11-16T11:05:30.464Z,33.53
2022-11-16T11:08:02.049Z,39.27
2022-11-16T11:10:33.892Z,23.47
2022-11-16T11:13:27.426Z,20.43
2022-11-16T11:16:14.670Z,39.10
2022-11-16T11:18:42.178Z,25.97
2022-11-16T11:21:18.159Z,38.97
2022-11-16T11:23:47.400Z,21.70
2022-11-16T11:26:34.701Z,29.40
2022-11-16T11:29:18.261Z,42.07
2022-11-16T11:31:49.603Z,43.03
2022-11-16T11:34:20.194Z,21.73
2022-11-16T11:36:50.029Z,19.80
2022-11-16T11:39:32.181Z,17.97
2022-11-16T11:42:05.437Z,34.93
2022-11-16T11:44:41.108Z,29.73
2022-11-16T11:50:16.386Z,23.00
2022-11-16T11:52:50.361Z,38.77
2022-11-16T11:55:18.223Z,42.90
2022-11-16T11:57:49.637Z,19.30
2022-11-16T12:00:17.632Z,45.50
2022-11-16T12:03:09.844Z,43.37
2022-11-16T12:06:01.741Z,42.33
2022-11-16T12:08:42.493Z,36.00
2022-11-16T12:11:21.740Z,35.87
2022-11-16T12:14:09.386Z,41.83
2022-11-16T12:16:40.787Z,20.80
2022-11-16T12:19:27.139Z,38.93
2022-11-16T12:22:06.152Z,35.73
2022-11-16T12:24:58.676Z,35.93
2022-11-16T12:27:37.112Z,26.33
2022-11-16T12:30:13.116Z,29.63
2022-11-16T12:33:00.211Z,25.60
2022-11-16T12:35:40.041Z,37.37
2022-11-16T12:38:37.492Z,34.13
2022-11-16T12:41:41.830Z,32.13
2022-11-16T12:44:22.104Z,36.00
2022-11-16T12:46:58.726Z,25.23
2022-11-16T12:49:57.901Z,28.13
2022-11-16T12:52:36.900Z,14.33
2022-11-16T12:55:26.464Z,30.90
2022-11-16T12:58:07.139Z,33.50
2022-11-16T13:00:47.551Z,23.87
2022-11-16T13:03:20.828Z,14.47
2022-11-16T13:05:56.233Z,33.30
2022-11-16T13:08:37.651Z,27.07
2022-11-16T13:11:13.243Z,33.33
2022-11-16T13:13:42.013Z,33.13
2022-11-16T13:16:10.152Z,30.90
2022-11-16T13:18:41.212Z,30.43
2022-11-16T13:21:18.209Z,21.30
2022-11-16T13:23:55.206Z,25.63
2022-11-16T13:26:27.863Z,28.10
2022-11-16T13:29:00.359Z,22.27
2022-11-16T13:31:32.251Z,21.00
2022-11-16T13:34:03.189Z,15.93
2022-11-16T13:36:44.511Z,16.60
2022-11-16T13:39:18.709Z,27.93
2022-11-16T13:41:50.423Z,17.23
2022-11-16T13:44:28.877Z,15.70
2022-11-16T13:47:03.431Z,19.33
2022-11-16T13:49:49.265Z,21.50
2022-11-16T13:52:26.372Z,22.77
2022-11-16T13:55:12.693Z,22.40
2022-11-16T13:57:47.181Z,26.43
2022-11-16T14:00:22.439Z,14.53
2022-11-16T14:03:09.079Z,27.13
2022-11-16T14:05:40.884Z,23.60
2022-11-16T14:08:46.674Z,24.10
2022-11-16T14:11:43.603Z,17.27
2022-11-16T14:14:12.064Z,25.50
2022-11-16T14:16:49.032Z,26.20
2022-11-16T14:19:54.988Z,24.00
2022-11-16T14:22:52.828Z,21.37
2022-11-16T14:25:31.461Z,21.63
2022-11-16T14:28:11.568Z,21.97
2022-11-16T14:30:51.807Z,22.57
2022-11-16T14:33:29.867Z,21.63
2022-11-16T14:35:56.827Z,8.40
2022-11-16T14:38:31.192Z,20.20
2022-11-16T14:40:59.931Z,13.33
2022-11-16T14:43:32.838Z,19.43
2022-11-16T14:46:03.921Z,19.10
2022-11-16T14:48:31.284Z,20.90
2022-11-16T14:51:03.823Z,24.30
2022-11-16T14:53:33.843Z,20.50
2022-11-16T14:56:09.860Z,23.53
2022-11-16T14:58:37.602Z,18.30
2022-11-16T15:01:07.526Z,12.77
2022-11-16T15:03:40.435Z,15.90
2022-11-16T15:06:07.988Z,18.77
2022-11-16T15:08:41.950Z,9.10
2022-11-16T15:11:14.022Z,15.07
2022-11-16T15:13:45.697Z,20.17
2022-11-16T15:16:17.011Z,14.13
2022-11-16T15:18:56.449Z,15.23
2022-11-16T15:21:23.802Z,15.17
2022-11-16T15:24:15.631Z,18.23
2022-11-16T15:26:38.848Z,14.20
2022-11-16T15:29:05.486Z,7.07
2022-11-16T15:31:32.514Z,15.43
2022-11-16T15:33:59.452Z,14.20
2022-11-16T15:36:32.678Z,9.13
2022-11-16T15:39:02.360Z,9.60
2022-11-16T15:41:29.825Z,8.00
2022-11-16T15:44:14.122Z,17.17
2022-11-16T15:46:44.122Z,11.43
2022-11-16T15:49:22.259Z,10.87
2022-11-16T15:51:48.918Z,11.03
2022-11-16T15:54:24.259Z,7.07
2022-11-16T15:56:52.431Z,7.63
2022-11-16T15:59:25.147Z,13.23
2022-11-16T16:01:51.851Z,9.80
2022-11-16T16:04:19.166Z,9.37
2022-11-16T16:06:50.486Z,6.40
2022-11-16T16:09:31.465Z,8.90
2022-11-16T16:12:21.004Z,10.93
2022-11-16T16:14:52.360Z,15.83
2022-11-16T16:17:24.593Z,4.90
2022-11-16T16:19:55.377Z,13.33
2022-11-16T16:22:28.876Z,11.27
2022-11-16T16:24:56.398Z,9.07
2022-11-16T16:27:26.762Z,10.83
2022-11-16T16:29:55.057Z,9.90
2022-11-16T16:32:26.882Z,11.37
2022-11-16T16:34:58.925Z,13.47
2022-11-16T16:37:30.476Z,15.13
2022-11-16T16:39:58.576Z,9.40
2022-11-16T16:42:25.505Z,7.90
2022-11-16T16:44:52.126Z,6.47
2022-11-16T16:47:20.508Z,13.30
2022-11-16T16:49:49.993Z,16.63
2022-11-16T16:52:17.895Z,12.60
2022-11-16T16:54:44.529Z,12.20
2022-11-16T16:57:15.662Z,9.13
2022-11-16T16:59:44.347Z,12.57
2022-11-16T17:02:11.257Z,10.33
2022-11-16T17:04:37.903Z,19.10
2022-11-16T17:07:06.957Z,11.43
2022-11-16T17:09:40.855Z,16.50
2022-11-16T17:12:07.685Z,15.90
2022-11-16T17:14:36.579Z,13.80
2022-11-16T17:17:03.684Z,13.10
2022-11-16T17:19:30.831Z,13.23
2022-11-16T17:21:59.484Z,11.43
2022-11-16T17:24:26.151Z,8.67
2022-11-16T17:26:53.145Z,15.57
2022-11-16T17:29:19.830Z,8.37
2022-11-16T17:31:48.201Z,6.00
2022-11-16T17:34:15.305Z,11.43
2022-11-16T17:36:42.671Z,10.40
2022-11-16T17:39:10.124Z,15.70
2022-11-16T17:41:38.299Z,12.73
2022-11-16T17:44:06.267Z,10.37
2022-11-16T17:46:33.277Z,9.70
2022-11-16T17:49:02.524Z,12.13
2022-11-16T17:51:30.374Z,8.03
2022-11-16T17:53:59.794Z,11.30
2022-11-16T17:56:31.625Z,8.43
2022-11-16T17:59:00.909Z,5.20
2022-11-16T18:01:30.961Z,10.13
2022-11-16T18:03:57.981Z,4.57
2022-11-16T18:06:26.782Z,7.53
2022-11-16T18:08:55.690Z,9.17
2022-11-16T18:11:24.645Z,6.27
2022-11-16T18:13:53.245Z,8.57
2022-11-16T18:16:21.885Z,12.53
2022-11-16T18:18:49.671Z,11.37
2022-11-16T18:21:20.794Z,6.10
2022-11-16T18:23:49.355Z,8.93
2022-11-16T18:26:18.001Z,9.57
2022-11-16T18:28:44.855Z,7.87
2022-11-16T18:31:13.531Z,13.00
2022-11-16T18:33:40.516Z,3.87
2022-11-16T18:36:09.166Z,9.17
2022-11-16T18:38:36.853Z,4.40
2022-11-16T18:41:06.014Z,6.57
2022-11-16T18:43:34.055Z,8.93
2022-11-16T18:46:01.171Z,8.93
2022-11-16T18:48:27.821Z,6.53
2022-11-16T18:50:58.441Z,8.53
2022-11-16T18:53:25.370Z,5.20
2022-11-16T18:55:57.622Z,5.50
2022-11-16T19:01:20.011Z,2.23
2022-11-16T19:03:47.918Z,7.00
2022-11-16T19:06:17.207Z,5.50
2022-11-16T19:08:49.004Z,6.17
2022-11-16T19:11:18.983Z,3.40
2022-11-16T19:13:46.233Z,5.93
2022-11-16T19:16:13.444Z,6.10
2022-11-16T19:18:40.531Z,5.60
2022-11-16T19:21:09.307Z,5.60
2022-11-16T19:23:37.074Z,7.40
2022-11-16T19:26:06.835Z,6.33
2022-11-16T19:28:36.037Z,4.77
2022-11-16T19:31:08.524Z,6.97
2022-11-16T19:33:37.599Z,3.10
2022-11-16T19:36:10.274Z,8.87
2022-11-16T19:38:38.969Z,5.53
2022-11-16T19:41:06.375Z,6.67
2022-11-16T19:43:35.346Z,3.67
2022-11-16T19:46:03.471Z,4.90
2022-11-16T19:48:35.513Z,2.70
2022-11-16T19:51:07.910Z,4.40
2022-11-16T19:53:35.915Z,7.77
2022-11-16T19:56:06.313Z,3.57
2022-11-16T19:58:36.300Z,4.97
2022-11-16T20:01:03.952Z,7.20
2022-11-16T20:03:32.860Z,3.80
2022-11-16T20:06:07.976Z,6.27
2022-11-16T20:08:35.459Z,6.73
2022-11-16T20:11:02.604Z,6.10
2022-11-16T20:13:29.235Z,5.90
2022-11-16T20:15:56.127Z,7.10
2022-11-16T20:18:23.734Z,6.67
2022-11-16T20:20:54.680Z,8.50
2022-11-16T20:23:23.610Z,7.73
2022-11-16T20:25:50.824Z,6.60
2022-11-16T20:28:17.673Z,6.50
2022-11-16T20:30:49.485Z,8.67
2022-11-16T20:33:17.497Z,4.43
2022-11-16T20:35:44.187Z,3.73
2022-11-16T20:38:12.425Z,6.63
2022-11-16T20:40:39.178Z,5.97
2022-11-16T20:43:14.697Z,8.67
2022-11-16T20:45:41.299Z,6.70
2022-11-16T20:48:07.962Z,2.90
2022-11-16T20:50:35.031Z,5.93
2022-11-16T20:53:01.767Z,5.90
2022-11-16T20:55:43.713Z,6.43
2022-11-16T20:58:17.492Z,3.97
2022-11-16T21:00:49.926Z,4.20
2022-11-16T21:03:17.257Z,9.33
2022-11-16T21:05:45.559Z,5.23
2022-11-16T21:08:12.662Z,8.00
2022-11-16T21:10:40.234Z,7.47
2022-11-16T21:13:29.866Z,4.63
2022-11-16T21:16:04.589Z,5.17
2022-11-16T21:18:33.320Z,5.50
2022-11-16T21:21:01.178Z,6.23
2022-11-16T21:23:28.785Z,5.23
2022-11-16T21:26:01.109Z,4.87
2022-11-16T21:28:27.699Z,8.17
2022-11-16T21:31:05.761Z,8.07
2022-11-16T21:33:34.449Z,7.60
2022-11-16T21:36:05.403Z,9.03
2022-11-16T21:38:33.451Z,4.63
2022-11-16T21:41:05.522Z,7.17
2022-11-16T21:43:38.968Z,5.10
2022-11-16T21:46:10.756Z,8.20
2022-11-16T21:48:39.488Z,5.60
2022-11-16T21:51:08.855Z,8.17
2022-11-16T21:53:50.106Z,5.23
2022-11-16T21:56:23.165Z,4.27
2022-11-16T21:58:52.059Z,5.10
2022-11-16T22:01:20.226Z,3.60
2022-11-16T22:04:08.131Z,7.53
2022-11-16T22:06:53.929Z,6.73
2022-11-16T22:09:21.057Z,4.83
2022-11-16T22:11:49.086Z,5.70
2022-11-16T22:14:15.892Z,2.80
2022-11-16T22:16:42.824Z,7.17
2022-11-16T22:19:09.777Z,4.87
2022-11-16T22:21:39.006Z,5.57
2022-11-16T22:24:10.104Z,6.20
2022-11-16T22:26:39.153Z,6.80
2022-11-16T22:29:08.687Z,3.23
2022-11-16T22:31:36.375Z,6.67
2022-11-16T22:34:03.103Z,5.40
2022-11-16T22:36:30.004Z,4.60
2022-11-16T22:38:56.725Z,6.50
2022-11-16T22:41:23.316Z,5.13
2022-11-16T22:43:49.848Z,4.80
2022-11-16T22:46:17.136Z,9.17
2022-11-16T22:48:44.261Z,6.93
2022-11-16T22:51:19.312Z,8.27
2022-11-16T22:53:46.241Z,4.10
2022-11-16T22:56:13.438Z,5.57
2022-11-16T22:58:40.164Z,4.53
2022-11-16T23:01:08.478Z,4.43
2022-11-16T23:03:36.623Z,6.80
2022-11-16T23:06:05.051Z,4.50
2022-11-16T23:08:32.504Z,6.20
2022-11-16T23:11:19.019Z,4.47
2022-11-16T23:14:04.259Z,6.03
2022-11-16T23:16:31.172Z,6.40
2022-11-16T23:18:58.572Z,7.87
2022-11-16T23:21:43.260Z,5.77
2022-11-16T23:24:28.803Z,7.23
2022-11-16T23:27:14.330Z,4.30
2022-11-16T23:29:42.104Z,4.27
2022-11-16T23:32:08.982Z,5.87
2022-11-16T23:34:36.264Z,4.77
2022-11-16T23:37:03.233Z,5.33
2022-11-16T23:39:29.951Z,7.20
2022-11-16T23:42:15.579Z,6.90
2022-11-16T23:44:42.452Z,2.67
2022-11-16T23:47:09.666Z,10.10
2022-11-16T23:49:36.994Z,5.47
2022-11-16T23:52:03.946Z,3.80
2022-11-16T23:54:30.712Z,6.60
2022-11-16T23:56:57.468Z,4.93
2022-11-16T23:59:24.008Z,10.10
